RYR150P ESGG-LEMG
Flight info
| Callsign | RYR150P |
|---|---|
| Flight time | N/A |
| Altitude | 36000 |
| Route | VADIN DCT CIV/N0448F370 N872 MEDIL DCT KOVIN DCT DUCRA UM728 RESMI UN857 DISAK DCT ARKIP DCT ARNAV DCT LMG DCT UVELI DCT OSMOB DCT VAVIX DCT NETUK N857 MONTO N864 CRISA DCT VULPE |
| Aircraft | B38M/M-SDE1FGHILORVWXY/HB1 |
Departure
| Time | 2026-05-04 10:44 |
|---|---|
| Airport | Göteborg Landvetter Airport (ESGG) |
Arrival
| Time | N/A |
|---|---|
| Airport | Málaga-Costa del Sol Airport (LEMG) |
| Time | Latitude | Longitude | Altitude | Speed | Heading |
|---|---|---|---|---|---|
| 2026-05-04 09:54 | 57.66973 | 12.29497 | 531 ft | 0 kts | 116° |
| 2026-05-04 10:33 | 57.66981 | 12.29469 | 531 ft | 4 kts | 124° |
| 2026-05-04 10:33 | 57.66999 | 12.29432 | 531 ft | 4 kts | 144° |
| 2026-05-04 10:34 | 57.67022 | 12.29411 | 531 ft | 4 kts | 170° |
| 2026-05-04 10:34 | 57.67047 | 12.29414 | 531 ft | 3 kts | 203° |
| 2026-05-04 10:34 | 57.67051 | 12.29417 | 531 ft | 0 kts | 206° |
| 2026-05-04 10:39 | 57.66979 | 12.29349 | 531 ft | 1 kts | 239° |
| 2026-05-04 10:39 | 57.66983 | 12.29317 | 531 ft | 7 kts | 282° |
| 2026-05-04 10:39 | 57.67025 | 12.29199 | 531 ft | 14 kts | 341° |
| 2026-05-04 10:40 | 57.67121 | 12.29257 | 532 ft | 15 kts | 26° |
| 2026-05-04 10:40 | 57.67218 | 12.29344 | 533 ft | 16 kts | 26° |
| 2026-05-04 10:40 | 57.67318 | 12.29435 | 534 ft | 16 kts | 26° |
| 2026-05-04 10:40 | 57.67413 | 12.29433 | 535 ft | 13 kts | 307° |
| 2026-05-04 10:41 | 57.67452 | 12.29288 | 535 ft | 13 kts | 290° |
| 2026-05-04 10:41 | 57.67456 | 12.29256 | 534 ft | 0 kts | 277° |
| 2026-05-04 10:41 | 57.67456 | 12.29250 | 534 ft | 1 kts | 276° |
| 2026-05-04 10:41 | 57.67456 | 12.29224 | 534 ft | 4 kts | 266° |
| 2026-05-04 10:42 | 57.67451 | 12.29145 | 533 ft | 9 kts | 262° |
| 2026-05-04 10:42 | 57.67430 | 12.29019 | 533 ft | 10 kts | 217° |
| 2026-05-04 10:42 | 57.67414 | 12.29004 | 533 ft | 0 kts | 204° |
| 2026-05-04 10:42 | 57.67406 | 12.28998 | 533 ft | 5 kts | 205° |
| 2026-05-04 10:43 | 57.67249 | 12.28852 | 533 ft | 59 kts | 206° |
| 2026-05-04 10:44 | 57.59005 | 12.22129 | 2191 ft | 246 kts | 197° |
| 2026-05-04 10:45 | 57.57328 | 12.21455 | 2512 ft | 245 kts | 192° |
| 2026-05-04 10:45 | 57.55613 | 12.21058 | 2629 ft | 258 kts | 187° |
| 2026-05-04 10:45 | 57.53747 | 12.20919 | 2586 ft | 275 kts | 183° |
| 2026-05-04 10:45 | 57.51851 | 12.20998 | 3120 ft | 268 kts | 180° |
| 2026-05-04 10:46 | 57.49995 | 12.21265 | 3483 ft | 271 kts | 176° |
| 2026-05-04 10:46 | 57.48084 | 12.21744 | 3582 ft | 283 kts | 177° |
| 2026-05-04 10:46 | 57.46105 | 12.21784 | 3822 ft | 280 kts | 191° |
| 2026-05-04 10:46 | 57.44271 | 12.21212 | 4545 ft | 265 kts | 197° |
| 2026-05-04 10:47 | 57.42560 | 12.19980 | 4750 ft | 265 kts | 222° |
| 2026-05-04 10:47 | 57.41321 | 12.17474 | 4648 ft | 271 kts | 245° |
| 2026-05-04 10:47 | 57.40347 | 12.14368 | 4586 ft | 282 kts | 246° |
| 2026-05-04 10:47 | 57.39231 | 12.11358 | 4989 ft | 282 kts | 239° |
| 2026-05-04 10:49 | 57.29143 | 11.94640 | 7762 ft | 262 kts | 227° |
| 2026-05-04 10:49 | 57.27898 | 11.92208 | 8102 ft | 262 kts | 229° |
| 2026-05-04 10:50 | 57.26581 | 11.89749 | 8138 ft | 277 kts | 228° |
| 2026-05-04 10:51 | 57.17441 | 11.71676 | 10839 ft | 250 kts | 231° |
| 2026-05-04 10:52 | 57.16267 | 11.69304 | 11380 ft | 253 kts | 231° |
| 2026-05-04 10:52 | 57.15028 | 11.66879 | 11878 ft | 269 kts | 230° |
| 2026-05-04 10:52 | 57.13660 | 11.64336 | 12192 ft | 291 kts | 224° |
| 2026-05-04 10:54 | 57.01488 | 11.46793 | 16465 ft | 329 kts | 222° |
| 2026-05-04 10:54 | 56.99679 | 11.44187 | 17107 ft | 332 kts | 222° |
| 2026-05-04 10:56 | 56.88081 | 11.27549 | 20434 ft | 347 kts | 222° |
| 2026-05-04 10:58 | 56.86256 | 11.24944 | 20855 ft | 350 kts | 221° |
| 2026-05-04 10:59 | 56.84322 | 11.22185 | 21250 ft | 355 kts | 221° |
| 2026-05-04 10:59 | 56.82365 | 11.19399 | 21747 ft | 357 kts | 221° |
| 2026-05-04 10:59 | 56.80400 | 11.16603 | 22221 ft | 360 kts | 221° |
| 2026-05-04 10:59 | 56.78419 | 11.13789 | 22691 ft | 362 kts | 221° |
| 2026-05-04 11:00 | 56.76452 | 11.11000 | 23173 ft | 365 kts | 221° |
| 2026-05-04 11:01 | 56.62084 | 10.90736 | 25920 ft | 382 kts | 221° |
| 2026-05-04 11:02 | 56.60005 | 10.87820 | 26279 ft | 385 kts | 221° |
| 2026-05-04 11:02 | 56.57880 | 10.84844 | 26662 ft | 387 kts | 221° |
| 2026-05-04 11:05 | 56.36520 | 10.55172 | 30012 ft | 407 kts | 221° |
| 2026-05-04 11:06 | 56.34267 | 10.52067 | 30277 ft | 409 kts | 221° |
| 2026-05-04 11:06 | 56.32001 | 10.48950 | 30510 ft | 411 kts | 220° |
| 2026-05-04 11:06 | 56.29723 | 10.45820 | 30795 ft | 413 kts | 220° |
| 2026-05-04 11:06 | 56.27462 | 10.42719 | 31009 ft | 415 kts | 220° |
| 2026-05-04 11:08 | 56.11172 | 10.20513 | 32958 ft | 421 kts | 220° |
| 2026-05-04 11:10 | 55.94870 | 9.98531 | 34883 ft | 420 kts | 220° |
| 2026-05-04 11:12 | 55.78584 | 9.76806 | 35945 ft | 417 kts | 220° |
| 2026-05-04 11:12 | 55.76258 | 9.73722 | 35946 ft | 417 kts | 220° |
| 2026-05-04 11:12 | 55.71606 | 9.67570 | 35951 ft | 417 kts | 220° |
| 2026-05-04 11:13 | 55.66950 | 9.61429 | 35952 ft | 417 kts | 219° |
| 2026-05-04 11:13 | 55.62322 | 9.55344 | 35947 ft | 417 kts | 219° |
| 2026-05-04 11:14 | 55.57651 | 9.49222 | 35956 ft | 419 kts | 219° |
| 2026-05-04 11:16 | 55.38890 | 9.24816 | 35964 ft | 419 kts | 219° |
| 2026-05-04 11:16 | 55.34194 | 9.18752 | 35963 ft | 419 kts | 219° |
| 2026-05-04 11:17 | 55.29494 | 9.12702 | 35965 ft | 419 kts | 219° |
| 2026-05-04 11:19 | 55.10719 | 8.88715 | 35976 ft | 417 kts | 219° |
| 2026-05-04 11:19 | 55.06818 | 8.83766 | 35977 ft | 417 kts | 219° |
| 2026-05-04 11:20 | 55.02118 | 8.77821 | 35988 ft | 417 kts | 219° |
| 2026-05-04 11:20 | 54.96634 | 8.70906 | 36007 ft | 420 kts | 219° |
| 2026-05-04 11:22 | 54.78559 | 8.48280 | 36000 ft | 418 kts | 218° |
| 2026-05-04 11:23 | 54.73837 | 8.42412 | 36009 ft | 418 kts | 218° |
| 2026-05-04 11:25 | 54.57348 | 8.22051 | 36012 ft | 417 kts | 218° |
| 2026-05-04 11:25 | 54.52623 | 8.16256 | 36021 ft | 417 kts | 218° |
| 2026-05-04 11:27 | 54.31362 | 7.90382 | 36027 ft | 418 kts | 218° |
| 2026-05-04 11:28 | 54.26644 | 7.84686 | 36030 ft | 418 kts | 218° |
| 2026-05-04 11:28 | 54.21900 | 7.78974 | 36023 ft | 416 kts | 218° |
| 2026-05-04 11:29 | 54.17169 | 7.73294 | 36027 ft | 415 kts | 218° |
| 2026-05-04 11:29 | 54.12439 | 7.67632 | 36029 ft | 415 kts | 218° |
| 2026-05-04 11:33 | 53.79371 | 7.28492 | 36025 ft | 416 kts | 217° |
| 2026-05-04 11:33 | 53.74614 | 7.22925 | 36015 ft | 415 kts | 217° |
| 2026-05-04 11:34 | 53.69871 | 7.17389 | 36012 ft | 414 kts | 217° |
| 2026-05-04 11:34 | 53.65158 | 7.11904 | 36014 ft | 414 kts | 217° |
| 2026-05-04 11:35 | 53.60412 | 7.06395 | 36010 ft | 414 kts | 217° |
| 2026-05-04 11:35 | 53.55662 | 7.00898 | 36010 ft | 414 kts | 217° |
| 2026-05-04 11:36 | 53.50921 | 6.95424 | 36002 ft | 411 kts | 217° |
| 2026-05-04 11:36 | 53.46249 | 6.90048 | 36003 ft | 410 kts | 217° |
| 2026-05-04 11:37 | 53.41544 | 6.84647 | 36010 ft | 410 kts | 217° |
| 2026-05-04 11:37 | 53.36835 | 6.79256 | 36012 ft | 410 kts | 217° |
| 2026-05-04 11:38 | 53.32126 | 6.73880 | 36002 ft | 410 kts | 217° |
| 2026-05-04 11:38 | 53.27414 | 6.68514 | 35991 ft | 410 kts | 217° |
| 2026-05-04 11:39 | 53.22725 | 6.63190 | 35985 ft | 412 kts | 216° |
| 2026-05-04 11:41 | 53.06113 | 6.44441 | 35971 ft | 412 kts | 216° |
| 2026-05-04 11:41 | 53.01381 | 6.39134 | 35980 ft | 410 kts | 216° |
| 2026-05-04 11:42 | 52.96648 | 6.33840 | 35982 ft | 410 kts | 216° |
| 2026-05-04 11:42 | 52.91918 | 6.28562 | 35978 ft | 410 kts | 216° |
| 2026-05-04 11:43 | 52.87215 | 6.23328 | 35985 ft | 410 kts | 216° |
| 2026-05-04 11:43 | 52.82479 | 6.18072 | 35971 ft | 408 kts | 216° |
| 2026-05-04 11:44 | 52.77774 | 6.12865 | 35979 ft | 407 kts | 216° |
| 2026-05-04 11:44 | 52.73074 | 6.07677 | 35981 ft | 407 kts | 216° |
| 2026-05-04 11:45 | 52.68367 | 6.02495 | 35982 ft | 407 kts | 216° |
| 2026-05-04 11:45 | 52.63670 | 5.97336 | 35985 ft | 410 kts | 216° |
| 2026-05-04 11:46 | 52.58923 | 5.92138 | 35981 ft | 407 kts | 216° |
| 2026-05-04 11:46 | 52.54217 | 5.86997 | 35982 ft | 406 kts | 216° |
| 2026-05-04 11:47 | 52.49512 | 5.81870 | 35992 ft | 406 kts | 216° |
| 2026-05-04 11:47 | 52.44832 | 5.76785 | 35973 ft | 406 kts | 216° |
| 2026-05-04 11:48 | 52.40120 | 5.71678 | 35984 ft | 406 kts | 216° |
| 2026-05-04 11:48 | 52.35417 | 5.66594 | 35984 ft | 404 kts | 215° |
| 2026-05-04 11:49 | 52.30735 | 5.61546 | 35990 ft | 403 kts | 215° |
| 2026-05-04 11:49 | 52.26050 | 5.56508 | 35991 ft | 403 kts | 215° |
| 2026-05-04 11:50 | 52.21394 | 5.51513 | 35987 ft | 403 kts | 215° |
| 2026-05-04 11:50 | 52.16702 | 5.46493 | 35986 ft | 403 kts | 215° |
| 2026-05-04 11:51 | 52.12018 | 5.41493 | 35976 ft | 402 kts | 214° |
| 2026-05-04 11:51 | 52.07333 | 5.36506 | 35983 ft | 403 kts | 214° |
| 2026-05-04 11:52 | 52.02668 | 5.31554 | 35978 ft | 403 kts | 214° |
| 2026-05-04 11:52 | 51.97966 | 5.26573 | 35980 ft | 403 kts | 214° |
| 2026-05-04 11:53 | 51.93264 | 5.21606 | 35984 ft | 403 kts | 214° |
| 2026-05-04 11:53 | 51.88564 | 5.16653 | 35979 ft | 403 kts | 214° |
| 2026-05-04 11:55 | 51.69783 | 4.96988 | 35979 ft | 403 kts | 213° |
| 2026-05-04 11:56 | 51.65072 | 4.92085 | 35995 ft | 404 kts | 213° |
| 2026-05-04 11:56 | 51.60351 | 4.87185 | 35993 ft | 403 kts | 213° |
| 2026-05-04 11:57 | 51.55663 | 4.82332 | 35998 ft | 404 kts | 213° |
| 2026-05-04 11:57 | 51.50937 | 4.77452 | 36000 ft | 405 kts | 213° |
| 2026-05-04 11:58 | 51.46195 | 4.72567 | 35982 ft | 405 kts | 213° |
| 2026-05-04 11:58 | 51.41445 | 4.67685 | 35987 ft | 406 kts | 213° |
| 2026-05-04 11:59 | 51.36719 | 4.62841 | 35997 ft | 406 kts | 213° |
| 2026-05-04 11:59 | 51.31962 | 4.57977 | 35997 ft | 406 kts | 213° |
| 2026-05-04 12:00 | 51.27200 | 4.53119 | 35989 ft | 406 kts | 213° |
| 2026-05-04 12:00 | 51.22438 | 4.48273 | 35991 ft | 406 kts | 213° |
| 2026-05-04 12:01 | 51.17711 | 4.43473 | 35999 ft | 406 kts | 213° |
| 2026-05-04 12:02 | 51.01024 | 4.26620 | 35998 ft | 406 kts | 212° |
| 2026-05-04 12:03 | 50.96251 | 4.21826 | 36002 ft | 406 kts | 212° |
| 2026-05-04 12:03 | 50.91508 | 4.17074 | 35999 ft | 406 kts | 212° |
| 2026-05-04 12:04 | 50.86733 | 4.12301 | 35995 ft | 406 kts | 212° |
| 2026-05-04 12:04 | 50.81953 | 4.07534 | 35998 ft | 406 kts | 212° |
| 2026-05-04 12:05 | 50.77179 | 4.02785 | 36004 ft | 406 kts | 212° |
| 2026-05-04 12:05 | 50.72426 | 3.98069 | 36000 ft | 406 kts | 212° |
| 2026-05-04 12:06 | 50.67642 | 3.93332 | 35992 ft | 406 kts | 212° |
| 2026-05-04 12:06 | 50.62855 | 3.88605 | 35995 ft | 406 kts | 212° |
| 2026-05-04 12:07 | 50.60459 | 3.86243 | 36168 ft | 407 kts | 212° |
| 2026-05-04 12:07 | 50.58055 | 3.83884 | 36340 ft | 408 kts | 210° |
| 2026-05-04 12:07 | 50.55487 | 3.81975 | 36500 ft | 409 kts | 204° |
| 2026-05-04 12:07 | 50.52904 | 3.80220 | 36625 ft | 411 kts | 204° |
| 2026-05-04 12:08 | 50.50276 | 3.78419 | 36797 ft | 412 kts | 204° |
| 2026-05-04 12:08 | 50.47648 | 3.76625 | 36959 ft | 412 kts | 204° |
| 2026-05-04 12:08 | 50.42361 | 3.73024 | 36986 ft | 414 kts | 204° |
| 2026-05-04 12:09 | 50.37077 | 3.69437 | 37001 ft | 414 kts | 204° |
| 2026-05-04 12:09 | 50.31781 | 3.65850 | 37006 ft | 416 kts | 204° |
| 2026-05-04 12:10 | 50.26500 | 3.62283 | 37007 ft | 416 kts | 204° |
| 2026-05-04 12:10 | 50.21185 | 3.58702 | 36994 ft | 416 kts | 204° |
| 2026-05-04 12:11 | 50.15867 | 3.55128 | 36996 ft | 416 kts | 204° |
| 2026-05-04 12:11 | 50.10549 | 3.51561 | 36992 ft | 416 kts | 204° |
| 2026-05-04 12:12 | 50.05230 | 3.48004 | 37000 ft | 416 kts | 204° |
| 2026-05-04 12:12 | 49.99948 | 3.44479 | 36987 ft | 416 kts | 204° |
| 2026-05-04 12:14 | 49.78690 | 3.30378 | 36983 ft | 416 kts | 204° |
| 2026-05-04 12:15 | 49.73363 | 3.26867 | 36981 ft | 416 kts | 204° |
| 2026-05-04 12:15 | 49.68036 | 3.23362 | 36978 ft | 416 kts | 204° |
| 2026-05-04 12:16 | 49.62712 | 3.19869 | 36975 ft | 416 kts | 204° |
| 2026-05-04 12:16 | 49.57389 | 3.16384 | 36982 ft | 416 kts | 204° |
| 2026-05-04 12:17 | 49.52101 | 3.12930 | 36992 ft | 416 kts | 203° |
| 2026-05-04 12:17 | 49.46947 | 3.08947 | 36976 ft | 415 kts | 214° |
| 2026-05-04 12:18 | 49.42126 | 3.04053 | 36977 ft | 415 kts | 213° |
| 2026-05-04 12:18 | 49.37301 | 2.99166 | 36958 ft | 415 kts | 213° |
| 2026-05-04 12:19 | 49.32514 | 2.94319 | 36970 ft | 415 kts | 213° |
| 2026-05-04 12:19 | 49.27691 | 2.89446 | 36971 ft | 416 kts | 213° |
| 2026-05-04 12:20 | 49.22865 | 2.84582 | 36985 ft | 415 kts | 213° |
| 2026-05-04 12:20 | 49.18046 | 2.79738 | 36976 ft | 415 kts | 213° |
| 2026-05-04 12:21 | 49.13224 | 2.74900 | 36967 ft | 415 kts | 213° |
| 2026-05-04 12:21 | 49.08435 | 2.70108 | 36964 ft | 415 kts | 213° |
| 2026-05-04 12:22 | 49.03609 | 2.65290 | 36965 ft | 414 kts | 213° |
| 2026-05-04 12:22 | 48.98784 | 2.60482 | 36966 ft | 416 kts | 213° |
| 2026-05-04 12:23 | 48.93934 | 2.55664 | 36963 ft | 416 kts | 212° |
| 2026-05-04 12:23 | 48.89115 | 2.50886 | 36968 ft | 416 kts | 212° |
| 2026-05-04 12:24 | 48.84266 | 2.46090 | 36968 ft | 416 kts | 212° |
| 2026-05-04 12:24 | 48.79411 | 2.41299 | 36970 ft | 416 kts | 212° |
| 2026-05-04 12:25 | 48.74554 | 2.36518 | 36958 ft | 416 kts | 212° |
| 2026-05-04 12:25 | 48.69727 | 2.31777 | 36963 ft | 416 kts | 212° |
| 2026-05-04 12:26 | 48.64866 | 2.27013 | 36976 ft | 416 kts | 212° |
| 2026-05-04 12:26 | 48.60009 | 2.22264 | 36967 ft | 415 kts | 212° |
| 2026-05-04 12:27 | 48.54881 | 2.18747 | 36975 ft | 413 kts | 193° |
| 2026-05-04 12:27 | 48.49252 | 2.16786 | 36949 ft | 415 kts | 194° |
| 2026-05-04 12:28 | 48.43639 | 2.14925 | 36969 ft | 417 kts | 193° |
| 2026-05-04 12:28 | 48.37959 | 2.13090 | 36969 ft | 417 kts | 193° |
| 2026-05-04 12:29 | 48.32284 | 2.11266 | 36969 ft | 417 kts | 193° |
| 2026-05-04 12:29 | 48.26535 | 2.10550 | 36977 ft | 418 kts | 174° |
| 2026-05-04 12:30 | 48.20774 | 2.11646 | 36949 ft | 420 kts | 175° |
| 2026-05-04 12:30 | 48.14973 | 2.12822 | 36964 ft | 420 kts | 175° |
| 2026-05-04 12:31 | 48.12081 | 2.12830 | 36953 ft | 414 kts | 189° |
| 2026-05-04 12:31 | 48.09215 | 2.12263 | 36948 ft | 417 kts | 187° |
| 2026-05-04 12:31 | 48.03453 | 2.11248 | 36969 ft | 417 kts | 188° |
| 2026-05-04 12:32 | 47.94810 | 2.09614 | 36971 ft | 417 kts | 188° |
| 2026-05-04 12:33 | 47.89094 | 2.08523 | 36970 ft | 417 kts | 188° |
| 2026-05-04 12:33 | 47.83333 | 2.07427 | 36961 ft | 417 kts | 188° |
| 2026-05-04 12:34 | 47.77574 | 2.06332 | 36945 ft | 417 kts | 188° |
| 2026-05-04 12:34 | 47.71810 | 2.05240 | 36956 ft | 418 kts | 188° |
| 2026-05-04 12:35 | 47.66086 | 2.04157 | 36941 ft | 418 kts | 188° |
| 2026-05-04 12:35 | 47.60537 | 2.01901 | 36962 ft | 415 kts | 201° |
| 2026-05-04 12:36 | 47.55128 | 1.98850 | 36945 ft | 416 kts | 201° |
| 2026-05-04 12:36 | 47.49721 | 1.95737 | 36937 ft | 416 kts | 202° |
| 2026-05-04 12:37 | 47.44361 | 1.92641 | 36947 ft | 417 kts | 202° |
| 2026-05-04 12:37 | 47.38961 | 1.89527 | 36956 ft | 417 kts | 202° |
| 2026-05-04 12:38 | 47.33566 | 1.86422 | 36942 ft | 416 kts | 202° |
| 2026-05-04 12:38 | 47.28174 | 1.83326 | 36947 ft | 416 kts | 202° |
| 2026-05-04 12:39 | 47.22780 | 1.80235 | 36934 ft | 416 kts | 202° |
| 2026-05-04 12:39 | 47.17417 | 1.77199 | 36933 ft | 416 kts | 201° |
| 2026-05-04 12:40 | 47.12022 | 1.74158 | 36939 ft | 415 kts | 201° |
| 2026-05-04 12:40 | 47.06634 | 1.71127 | 36941 ft | 415 kts | 201° |
| 2026-05-04 12:41 | 47.01244 | 1.68100 | 36945 ft | 415 kts | 201° |
| 2026-05-04 12:41 | 46.95850 | 1.65078 | 36940 ft | 415 kts | 201° |
| 2026-05-04 12:42 | 46.90498 | 1.62086 | 36938 ft | 415 kts | 201° |
| 2026-05-04 12:42 | 46.85101 | 1.59075 | 36940 ft | 415 kts | 201° |
| 2026-05-04 12:43 | 46.79702 | 1.56071 | 36933 ft | 415 kts | 201° |
| 2026-05-04 12:43 | 46.74303 | 1.53072 | 36931 ft | 415 kts | 201° |
| 2026-05-04 12:44 | 46.68939 | 1.50098 | 36938 ft | 415 kts | 201° |
| 2026-05-04 12:44 | 46.63540 | 1.47113 | 36940 ft | 415 kts | 201° |
| 2026-05-04 12:45 | 46.58139 | 1.44131 | 36941 ft | 415 kts | 201° |
| 2026-05-04 12:45 | 46.52740 | 1.41158 | 36934 ft | 414 kts | 201° |
| 2026-05-04 12:46 | 46.47389 | 1.38218 | 36941 ft | 414 kts | 201° |
| 2026-05-04 12:46 | 46.41994 | 1.35259 | 36942 ft | 414 kts | 201° |
| 2026-05-04 12:47 | 46.36607 | 1.32311 | 36943 ft | 414 kts | 201° |
| 2026-05-04 12:47 | 46.31223 | 1.29371 | 36940 ft | 413 kts | 201° |
| 2026-05-04 12:48 | 46.25887 | 1.26464 | 36935 ft | 413 kts | 201° |
| 2026-05-04 12:48 | 46.20509 | 1.23539 | 36932 ft | 413 kts | 201° |
| 2026-05-04 12:49 | 46.15133 | 1.20621 | 36927 ft | 413 kts | 201° |
| 2026-05-04 12:49 | 46.09769 | 1.17717 | 36937 ft | 412 kts | 201° |
| 2026-05-04 12:50 | 46.04431 | 1.14832 | 36935 ft | 413 kts | 201° |
| 2026-05-04 12:50 | 45.99052 | 1.11932 | 36933 ft | 413 kts | 201° |
| 2026-05-04 12:51 | 45.93672 | 1.09036 | 36933 ft | 412 kts | 201° |
| 2026-05-04 12:51 | 45.88308 | 1.06154 | 36946 ft | 412 kts | 201° |
| 2026-05-04 12:52 | 45.82988 | 1.03269 | 36928 ft | 411 kts | 205° |
| 2026-05-04 12:52 | 45.80579 | 1.01106 | 36946 ft | 408 kts | 219° |
| 2026-05-04 12:52 | 45.78373 | 0.98527 | 36910 ft | 411 kts | 218° |
| 2026-05-04 12:53 | 45.73945 | 0.93353 | 36929 ft | 411 kts | 219° |
| 2026-05-04 12:53 | 45.69549 | 0.88124 | 36924 ft | 411 kts | 219° |
| 2026-05-04 12:54 | 45.65160 | 0.82890 | 36927 ft | 411 kts | 219° |
| 2026-05-04 12:54 | 45.60769 | 0.77660 | 36942 ft | 411 kts | 219° |
| 2026-05-04 12:55 | 45.56391 | 0.72457 | 36904 ft | 413 kts | 219° |
| 2026-05-04 12:55 | 45.51970 | 0.67215 | 36919 ft | 413 kts | 219° |
| 2026-05-04 12:56 | 45.47552 | 0.61987 | 36922 ft | 413 kts | 219° |
| 2026-05-04 12:56 | 45.43126 | 0.56760 | 36916 ft | 413 kts | 219° |
| 2026-05-04 12:57 | 45.38731 | 0.51580 | 36929 ft | 413 kts | 219° |
| 2026-05-04 12:57 | 45.34305 | 0.46376 | 36877 ft | 412 kts | 219° |
| 2026-05-04 12:58 | 45.29890 | 0.41195 | 36924 ft | 413 kts | 219° |
| 2026-05-04 12:58 | 45.25463 | 0.36010 | 36910 ft | 414 kts | 219° |
| 2026-05-04 12:59 | 45.21038 | 0.30841 | 36914 ft | 415 kts | 219° |
| 2026-05-04 12:59 | 45.16585 | 0.25646 | 36910 ft | 414 kts | 219° |
| 2026-05-04 13:00 | 45.12142 | 0.20475 | 36912 ft | 413 kts | 219° |
| 2026-05-04 13:00 | 45.07700 | 0.15315 | 36919 ft | 413 kts | 219° |
| 2026-05-04 13:01 | 45.03281 | 0.10196 | 36925 ft | 413 kts | 219° |
| 2026-05-04 13:01 | 44.98834 | 0.05053 | 36903 ft | 413 kts | 219° |
| 2026-05-04 13:02 | 44.94399 | -0.00064 | 36921 ft | 411 kts | 219° |
| 2026-05-04 13:02 | 44.89960 | -0.05177 | 36924 ft | 414 kts | 219° |
| 2026-05-04 13:03 | 44.85495 | -0.10309 | 36914 ft | 414 kts | 219° |
| 2026-05-04 13:03 | 44.81059 | -0.15397 | 36913 ft | 414 kts | 219° |
| 2026-05-04 13:04 | 44.76590 | -0.20511 | 36918 ft | 414 kts | 219° |
| 2026-05-04 13:04 | 44.72123 | -0.25615 | 36922 ft | 414 kts | 219° |
| 2026-05-04 13:05 | 44.67649 | -0.30714 | 36924 ft | 414 kts | 219° |
| 2026-05-04 13:05 | 44.63068 | -0.35496 | 36935 ft | 413 kts | 214° |
| 2026-05-04 13:06 | 44.58313 | -0.40043 | 36922 ft | 413 kts | 214° |
| 2026-05-04 13:06 | 44.53581 | -0.44612 | 36923 ft | 413 kts | 214° |
| 2026-05-04 13:07 | 44.48851 | -0.49179 | 36940 ft | 413 kts | 214° |
| 2026-05-04 13:07 | 44.44150 | -0.53709 | 36933 ft | 413 kts | 214° |
| 2026-05-04 13:08 | 44.39416 | -0.58262 | 36933 ft | 412 kts | 214° |
| 2026-05-04 13:08 | 44.34693 | -0.62795 | 36940 ft | 412 kts | 214° |
| 2026-05-04 13:09 | 44.29968 | -0.67322 | 36939 ft | 412 kts | 214° |
| 2026-05-04 13:09 | 44.25203 | -0.71758 | 36937 ft | 412 kts | 213° |
| 2026-05-04 13:10 | 44.20455 | -0.76127 | 36939 ft | 411 kts | 214° |
| 2026-05-04 13:10 | 44.15669 | -0.80527 | 36955 ft | 413 kts | 214° |
| 2026-05-04 13:11 | 44.10866 | -0.84935 | 36957 ft | 413 kts | 214° |
| 2026-05-04 13:11 | 44.06065 | -0.89334 | 36989 ft | 414 kts | 213° |
| 2026-05-04 13:12 | 44.01298 | -0.93691 | 36928 ft | 412 kts | 214° |
| 2026-05-04 13:12 | 43.96508 | -0.98060 | 36969 ft | 412 kts | 214° |
| 2026-05-04 13:13 | 43.91724 | -1.02416 | 36980 ft | 411 kts | 214° |
| 2026-05-04 13:13 | 43.86937 | -1.06766 | 36996 ft | 411 kts | 214° |
| 2026-05-04 13:14 | 43.82176 | -1.11084 | 36958 ft | 412 kts | 214° |
| 2026-05-04 13:14 | 43.77399 | -1.15410 | 37020 ft | 411 kts | 214° |
| 2026-05-04 13:15 | 43.72584 | -1.19759 | 36998 ft | 414 kts | 214° |
| 2026-05-04 13:15 | 43.67761 | -1.24109 | 36993 ft | 414 kts | 214° |
| 2026-05-04 13:16 | 43.62969 | -1.28421 | 37000 ft | 414 kts | 214° |
| 2026-05-04 13:16 | 43.58148 | -1.32751 | 37017 ft | 413 kts | 214° |
| 2026-05-04 13:17 | 43.53337 | -1.37064 | 37012 ft | 413 kts | 214° |
| 2026-05-04 13:17 | 43.48522 | -1.41373 | 37021 ft | 413 kts | 214° |
| 2026-05-04 13:18 | 43.43735 | -1.45648 | 37021 ft | 413 kts | 214° |
| 2026-05-04 13:18 | 43.38924 | -1.49936 | 37008 ft | 411 kts | 214° |
| 2026-05-04 13:19 | 43.34128 | -1.54204 | 37030 ft | 411 kts | 214° |
| 2026-05-04 13:19 | 43.29311 | -1.58482 | 37016 ft | 413 kts | 214° |
| 2026-05-04 13:20 | 43.24094 | -1.61624 | 37020 ft | 416 kts | 191° |
| 2026-05-04 13:20 | 43.18373 | -1.62733 | 37003 ft | 417 kts | 191° |
| 2026-05-04 13:21 | 43.12600 | -1.63743 | 37024 ft | 419 kts | 190° |
| 2026-05-04 13:21 | 43.06824 | -1.64704 | 36982 ft | 417 kts | 190° |
| 2026-05-04 13:22 | 43.01058 | -1.65657 | 36990 ft | 419 kts | 190° |
| 2026-05-04 13:22 | 42.95325 | -1.66601 | 36996 ft | 417 kts | 190° |
| 2026-05-04 13:23 | 42.89560 | -1.67549 | 36989 ft | 418 kts | 190° |
| 2026-05-04 13:23 | 42.83793 | -1.68496 | 36984 ft | 417 kts | 190° |
| 2026-05-04 13:24 | 42.78034 | -1.69439 | 36989 ft | 417 kts | 190° |
| 2026-05-04 13:24 | 42.72457 | -1.71025 | 36976 ft | 408 kts | 208° |
| 2026-05-04 13:25 | 42.64742 | -1.76049 | 36995 ft | 411 kts | 208° |
| 2026-05-04 13:25 | 42.59614 | -1.79466 | 36969 ft | 410 kts | 208° |
| 2026-05-04 13:26 | 42.54498 | -1.82894 | 36969 ft | 410 kts | 208° |
| 2026-05-04 13:26 | 42.49422 | -1.86293 | 36971 ft | 410 kts | 208° |
| 2026-05-04 13:27 | 42.44311 | -1.89709 | 36969 ft | 410 kts | 208° |
| 2026-05-04 13:27 | 42.39183 | -1.93128 | 36967 ft | 413 kts | 208° |
| 2026-05-04 13:28 | 42.34009 | -1.96572 | 36954 ft | 414 kts | 208° |
| 2026-05-04 13:28 | 42.28845 | -2.00003 | 36964 ft | 414 kts | 208° |
| 2026-05-04 13:29 | 42.23707 | -2.03411 | 36960 ft | 414 kts | 208° |
| 2026-05-04 13:29 | 42.18537 | -2.06833 | 36965 ft | 414 kts | 208° |
| 2026-05-04 13:30 | 42.13374 | -2.10246 | 36955 ft | 413 kts | 208° |
| 2026-05-04 13:30 | 42.08215 | -2.13648 | 36953 ft | 413 kts | 208° |
| 2026-05-04 13:31 | 42.03063 | -2.17040 | 36953 ft | 412 kts | 208° |
| 2026-05-04 13:31 | 41.97938 | -2.20408 | 36950 ft | 413 kts | 208° |
| 2026-05-04 13:32 | 41.92784 | -2.23789 | 36952 ft | 413 kts | 208° |
| 2026-05-04 13:32 | 41.87605 | -2.27180 | 36954 ft | 414 kts | 208° |
| 2026-05-04 13:33 | 41.82430 | -2.30564 | 36962 ft | 415 kts | 209° |
| 2026-05-04 13:33 | 41.77256 | -2.33939 | 36954 ft | 416 kts | 209° |
| 2026-05-04 13:34 | 41.72047 | -2.37332 | 36945 ft | 415 kts | 209° |
| 2026-05-04 13:34 | 41.66855 | -2.40706 | 36949 ft | 415 kts | 209° |
| 2026-05-04 13:35 | 41.59063 | -2.45761 | 36957 ft | 415 kts | 209° |
| 2026-05-04 13:36 | 41.53906 | -2.49099 | 36959 ft | 415 kts | 209° |
| 2026-05-04 13:36 | 41.48728 | -2.52444 | 36950 ft | 412 kts | 209° |
| 2026-05-04 13:37 | 41.43560 | -2.55775 | 36960 ft | 412 kts | 209° |
| 2026-05-04 13:37 | 41.38395 | -2.59099 | 36957 ft | 412 kts | 209° |
| 2026-05-04 13:38 | 41.33261 | -2.62401 | 36956 ft | 412 kts | 210° |
| 2026-05-04 13:38 | 41.28514 | -2.66548 | 36959 ft | 409 kts | 217° |
| 2026-05-04 13:39 | 41.23829 | -2.70841 | 36968 ft | 410 kts | 218° |
| 2026-05-04 13:39 | 41.19929 | -2.74425 | 36968 ft | 410 kts | 218° |
| 2026-05-04 13:40 | 41.14473 | -2.79434 | 36946 ft | 410 kts | 217° |
| 2026-05-04 13:40 | 41.09780 | -2.83734 | 36944 ft | 410 kts | 218° |
| 2026-05-04 13:41 | 41.05884 | -2.87297 | 36949 ft | 409 kts | 218° |
| 2026-05-04 13:41 | 41.01199 | -2.91576 | 36953 ft | 409 kts | 218° |
| 2026-05-04 13:42 | 40.93411 | -2.98673 | 36949 ft | 409 kts | 218° |
| 2026-05-04 13:42 | 40.89484 | -3.02242 | 36956 ft | 409 kts | 218° |
| 2026-05-04 13:43 | 40.84826 | -3.06471 | 36947 ft | 408 kts | 218° |
| 2026-05-04 13:43 | 40.80134 | -3.10722 | 36951 ft | 409 kts | 218° |
| 2026-05-04 13:44 | 40.75435 | -3.14972 | 36946 ft | 409 kts | 218° |
| 2026-05-04 13:44 | 40.70738 | -3.19214 | 36954 ft | 410 kts | 218° |
| 2026-05-04 13:45 | 40.66034 | -3.23453 | 36955 ft | 409 kts | 218° |
| 2026-05-04 13:45 | 40.61364 | -3.27655 | 36957 ft | 409 kts | 218° |
| 2026-05-04 13:46 | 40.56661 | -3.31880 | 36966 ft | 409 kts | 218° |
| 2026-05-04 13:46 | 40.51957 | -3.36099 | 36966 ft | 409 kts | 218° |
| 2026-05-04 13:47 | 40.47251 | -3.40310 | 36969 ft | 409 kts | 218° |
| 2026-05-04 13:47 | 40.42573 | -3.44492 | 36977 ft | 410 kts | 218° |
| 2026-05-04 13:48 | 40.37868 | -3.48689 | 36961 ft | 408 kts | 219° |
| 2026-05-04 13:48 | 40.33179 | -3.52864 | 36972 ft | 407 kts | 219° |
| 2026-05-04 13:49 | 40.28481 | -3.57041 | 36961 ft | 408 kts | 218° |
| 2026-05-04 13:49 | 40.23814 | -3.61183 | 36964 ft | 408 kts | 218° |
| 2026-05-04 13:50 | 40.19120 | -3.65343 | 36944 ft | 408 kts | 219° |
| 2026-05-04 13:50 | 40.14432 | -3.69492 | 36957 ft | 407 kts | 219° |
| 2026-05-04 13:51 | 40.09744 | -3.73629 | 36952 ft | 406 kts | 219° |
| 2026-05-04 13:51 | 40.05057 | -3.77759 | 36938 ft | 407 kts | 218° |
| 2026-05-04 13:52 | 39.98051 | -3.83922 | 36939 ft | 407 kts | 219° |
| 2026-05-04 13:53 | 39.93364 | -3.88035 | 36937 ft | 405 kts | 219° |
| 2026-05-04 13:53 | 39.88689 | -3.92133 | 36943 ft | 405 kts | 219° |
| 2026-05-04 13:54 | 39.81670 | -3.98269 | 36940 ft | 405 kts | 219° |
| 2026-05-04 13:55 | 39.74685 | -4.04364 | 36941 ft | 405 kts | 219° |
| 2026-05-04 13:55 | 39.67677 | -4.10460 | 36938 ft | 403 kts | 218° |
| 2026-05-04 13:56 | 39.63014 | -4.14509 | 36954 ft | 404 kts | 218° |
| 2026-05-04 13:57 | 39.56044 | -4.20548 | 36955 ft | 404 kts | 218° |
| 2026-05-04 13:58 | 39.46711 | -4.28613 | 36968 ft | 403 kts | 218° |
| 2026-05-04 13:58 | 39.39764 | -4.34598 | 36971 ft | 402 kts | 218° |
| 2026-05-04 13:59 | 39.35116 | -4.38594 | 36969 ft | 401 kts | 218° |
| 2026-05-04 14:00 | 39.28136 | -4.44584 | 36981 ft | 402 kts | 218° |
| 2026-05-04 14:00 | 39.20809 | -4.49767 | 36994 ft | 412 kts | 198° |
| 2026-05-04 14:01 | 39.15164 | -4.51104 | 36991 ft | 417 kts | 197° |
| 2026-05-04 14:02 | 39.06581 | -4.52962 | 36988 ft | 417 kts | 196° |
| 2026-05-04 14:02 | 39.00933 | -4.54149 | 36967 ft | 406 kts | 197° |
| 2026-05-04 14:03 | 38.95375 | -4.55312 | 36978 ft | 404 kts | 197° |
| 2026-05-04 14:03 | 38.89860 | -4.56465 | 36977 ft | 404 kts | 197° |
| 2026-05-04 14:04 | 38.81531 | -4.58202 | 36988 ft | 405 kts | 197° |
| 2026-05-04 14:04 | 38.75974 | -4.59359 | 36993 ft | 404 kts | 197° |
| 2026-05-04 14:05 | 38.67652 | -4.61089 | 36993 ft | 404 kts | 197° |
| 2026-05-04 14:06 | 38.62136 | -4.62233 | 36980 ft | 404 kts | 197° |
| 2026-05-04 14:06 | 38.56592 | -4.63381 | 36976 ft | 404 kts | 197° |
| 2026-05-04 14:07 | 38.51049 | -4.64527 | 36973 ft | 403 kts | 197° |
| 2026-05-04 14:07 | 38.45514 | -4.65669 | 36975 ft | 403 kts | 197° |
| 2026-05-04 14:08 | 38.40021 | -4.66801 | 36985 ft | 403 kts | 197° |
| 2026-05-04 14:08 | 38.34485 | -4.67941 | 36977 ft | 403 kts | 197° |
| 2026-05-04 14:09 | 38.26189 | -4.69645 | 36976 ft | 403 kts | 197° |
| 2026-05-04 14:10 | 38.17885 | -4.71346 | 36976 ft | 403 kts | 197° |
| 2026-05-04 14:10 | 38.12386 | -4.72471 | 36995 ft | 403 kts | 197° |
| 2026-05-04 14:11 | 38.06860 | -4.73600 | 36974 ft | 401 kts | 197° |
| 2026-05-04 14:11 | 37.98582 | -4.75287 | 36978 ft | 402 kts | 197° |
| 2026-05-04 14:12 | 37.93066 | -4.76408 | 36985 ft | 401 kts | 197° |
| 2026-05-04 14:13 | 37.84831 | -4.78081 | 36951 ft | 401 kts | 198° |
| 2026-05-04 14:13 | 37.79332 | -4.79196 | 36983 ft | 400 kts | 198° |
| 2026-05-04 14:14 | 37.73847 | -4.80321 | 36993 ft | 400 kts | 198° |
| 2026-05-04 14:14 | 37.65611 | -4.82041 | 36983 ft | 400 kts | 198° |
| 2026-05-04 14:15 | 37.54683 | -4.84274 | 36978 ft | 399 kts | 198° |
| 2026-05-04 14:16 | 37.46465 | -4.85927 | 36976 ft | 399 kts | 198° |
| 2026-05-04 14:17 | 37.38286 | -4.87569 | 36978 ft | 399 kts | 198° |
| 2026-05-04 14:18 | 37.30062 | -4.89123 | 36988 ft | 398 kts | 198° |
| 2026-05-04 14:19 | 37.19127 | -4.91143 | 36987 ft | 397 kts | 198° |
| 2026-05-04 14:19 | 37.13699 | -4.92144 | 36987 ft | 397 kts | 198° |
| 2026-05-04 14:20 | 37.08228 | -4.93126 | 36995 ft | 398 kts | 198° |
| 2026-05-04 14:20 | 37.02755 | -4.94095 | 36998 ft | 397 kts | 198° |
| 2026-05-04 14:21 | 36.94553 | -4.95545 | 36991 ft | 397 kts | 198° |
| 2026-05-04 14:21 | 36.89081 | -4.96487 | 36979 ft | 397 kts | 198° |
| 2026-05-04 14:22 | 36.83634 | -4.97399 | 36991 ft | 399 kts | 198° |
| 2026-05-04 14:22 | 36.78159 | -4.98361 | 37012 ft | 396 kts | 198° |
| 2026-05-04 14:23 | 36.69907 | -4.99758 | 37005 ft | 401 kts | 198° |
| 2026-05-04 14:24 | 36.64391 | -5.00673 | 36979 ft | 399 kts | 198° |
| 2026-05-04 14:24 | 36.58927 | -5.01561 | 36985 ft | 399 kts | 198° |
| 2026-05-04 14:25 | 36.53418 | -5.02444 | 36987 ft | 398 kts | 198° |
| 2026-05-04 14:25 | 36.45148 | -5.03829 | 37004 ft | 401 kts | 198° |
| 2026-05-04 14:26 | 36.39661 | -5.04749 | 37000 ft | 400 kts | 198° |
| 2026-05-04 14:26 | 36.34144 | -5.05689 | 37014 ft | 401 kts | 198° |
| 2026-05-04 14:27 | 36.28621 | -5.06635 | 37011 ft | 400 kts | 198° |
| 2026-05-04 14:27 | 36.23101 | -5.07577 | 37022 ft | 400 kts | 198° |
| 2026-05-04 14:28 | 36.17579 | -5.08519 | 37023 ft | 401 kts | 198° |
| 2026-05-04 14:28 | 36.12098 | -5.09452 | 36990 ft | 400 kts | 198° |
| 2026-05-04 14:29 | 36.01043 | -5.11307 | 37045 ft | 401 kts | 198° |
| 2026-05-04 14:30 | 35.95514 | -5.12231 | 37054 ft | 401 kts | 198° |
| 2026-05-04 14:31 | 35.87257 | -5.13609 | 37060 ft | 401 kts | 198° |
| 2026-05-04 14:32 | 35.76199 | -5.15459 | 37011 ft | 401 kts | 198° |
| 2026-05-04 14:32 | 35.70667 | -5.16382 | 37013 ft | 401 kts | 198° |
| 2026-05-04 14:33 | 35.65172 | -5.17296 | 37014 ft | 401 kts | 198° |
| 2026-05-04 14:33 | 35.59638 | -5.18200 | 37013 ft | 401 kts | 198° |
| 2026-05-04 14:34 | 35.54103 | -5.19096 | 37011 ft | 401 kts | 198° |
| 2026-05-04 14:34 | 35.48568 | -5.19995 | 37015 ft | 401 kts | 198° |
| 2026-05-04 14:35 | 35.43070 | -5.20889 | 37004 ft | 400 kts | 198° |
| 2026-05-04 14:35 | 35.37546 | -5.21792 | 36966 ft | 401 kts | 198° |
| 2026-05-04 14:36 | 35.32015 | -5.22706 | 37018 ft | 402 kts | 198° |
| 2026-05-04 14:36 | 35.26483 | -5.23624 | 37021 ft | 402 kts | 198° |
| 2026-05-04 14:37 | 35.20961 | -5.24538 | 37039 ft | 403 kts | 198° |
| 2026-05-04 14:37 | 35.15446 | -5.25450 | 37056 ft | 402 kts | 198° |
| 2026-05-04 14:38 | 35.09898 | -5.26381 | 37029 ft | 401 kts | 198° |
| 2026-05-04 14:38 | 35.04356 | -5.27325 | 37044 ft | 402 kts | 198° |
| 2026-05-04 14:39 | 34.98810 | -5.28268 | 37040 ft | 402 kts | 198° |
| 2026-05-04 14:39 | 34.93303 | -5.29197 | 37039 ft | 403 kts | 198° |
| 2026-05-04 14:40 | 34.84976 | -5.30625 | 37020 ft | 401 kts | 198° |
| 2026-05-04 14:40 | 34.79450 | -5.31593 | 37040 ft | 401 kts | 198° |
| 2026-05-04 14:41 | 34.73926 | -5.32548 | 37022 ft | 401 kts | 198° |
| 2026-05-04 14:42 | 34.62925 | -5.34443 | 37047 ft | 400 kts | 198° |
| 2026-05-04 14:42 | 34.57409 | -5.35400 | 37056 ft | 400 kts | 198° |
| 2026-05-04 14:43 | 34.51884 | -5.36365 | 37042 ft | 401 kts | 198° |
| 2026-05-04 14:43 | 34.46403 | -5.37320 | 37044 ft | 400 kts | 198° |
| 2026-05-04 14:44 | 34.40892 | -5.38278 | 37052 ft | 400 kts | 198° |
| 2026-05-04 14:44 | 34.35372 | -5.39237 | 37007 ft | 401 kts | 198° |
| 2026-05-04 14:45 | 34.29857 | -5.40217 | 37059 ft | 402 kts | 198° |
| 2026-05-04 14:45 | 34.24332 | -5.41200 | 37060 ft | 401 kts | 198° |
| 2026-05-04 14:46 | 34.18845 | -5.42176 | 37068 ft | 402 kts | 198° |
| 2026-05-04 14:46 | 34.13325 | -5.43159 | 37073 ft | 401 kts | 198° |
| 2026-05-04 14:47 | 34.07798 | -5.44152 | 37043 ft | 401 kts | 198° |
| 2026-05-04 14:47 | 34.02273 | -5.45183 | 37057 ft | 403 kts | 198° |
| 2026-05-04 14:48 | 33.96768 | -5.46200 | 37059 ft | 403 kts | 198° |
| 2026-05-04 14:48 | 33.91235 | -5.47228 | 37066 ft | 402 kts | 198° |
| 2026-05-04 14:49 | 33.85705 | -5.48255 | 37068 ft | 402 kts | 198° |
| 2026-05-04 14:49 | 33.80170 | -5.49293 | 37062 ft | 403 kts | 198° |
| 2026-05-04 14:50 | 33.74622 | -5.50350 | 37071 ft | 404 kts | 198° |
| 2026-05-04 14:50 | 33.69116 | -5.51399 | 37075 ft | 403 kts | 198° |
| 2026-05-04 14:51 | 33.63569 | -5.52454 | 37080 ft | 403 kts | 198° |
| 2026-05-04 14:51 | 33.58021 | -5.53506 | 37079 ft | 404 kts | 198° |
| 2026-05-04 14:52 | 33.52477 | -5.54571 | 37067 ft | 404 kts | 198° |
| 2026-05-04 14:52 | 33.46945 | -5.55648 | 37084 ft | 405 kts | 198° |
| 2026-05-04 14:53 | 33.41387 | -5.56731 | 37089 ft | 404 kts | 198° |
| 2026-05-04 14:53 | 33.35825 | -5.57808 | 37070 ft | 405 kts | 198° |
| 2026-05-04 14:54 | 33.30254 | -5.58888 | 37077 ft | 406 kts | 198° |
| 2026-05-04 14:54 | 33.24727 | -5.59957 | 37072 ft | 405 kts | 198° |
| 2026-05-04 14:55 | 33.19163 | -5.61022 | 37088 ft | 406 kts | 198° |
| 2026-05-04 14:55 | 33.13596 | -5.62084 | 37086 ft | 405 kts | 198° |
| 2026-05-04 14:56 | 33.08027 | -5.63162 | 37072 ft | 405 kts | 198° |
| 2026-05-04 14:56 | 33.02500 | -5.64221 | 37033 ft | 405 kts | 198° |
| 2026-05-04 14:57 | 32.96913 | -5.65279 | 37050 ft | 406 kts | 198° |
| 2026-05-04 14:57 | 32.91336 | -5.66350 | 37055 ft | 406 kts | 198° |
| 2026-05-04 14:58 | 32.85759 | -5.67416 | 37052 ft | 406 kts | 198° |
| 2026-05-04 14:58 | 32.80180 | -5.68485 | 37059 ft | 406 kts | 198° |
| 2026-05-04 14:59 | 32.74643 | -5.69539 | 37026 ft | 406 kts | 198° |
| 2026-05-04 15:00 | 32.66275 | -5.71114 | 37088 ft | 405 kts | 198° |
| 2026-05-04 15:00 | 32.60689 | -5.72142 | 37065 ft | 406 kts | 198° |
| 2026-05-04 15:01 | 32.52310 | -5.73684 | 37084 ft | 406 kts | 198° |
| 2026-05-04 15:01 | 32.46762 | -5.74701 | 37072 ft | 407 kts | 198° |
| 2026-05-04 15:02 | 32.41156 | -5.75706 | 37086 ft | 407 kts | 198° |
| 2026-05-04 15:02 | 32.35555 | -5.76709 | 37105 ft | 408 kts | 198° |
| 2026-05-04 15:03 | 32.29950 | -5.77717 | 37101 ft | 407 kts | 198° |
| 2026-05-04 15:03 | 32.24383 | -5.78715 | 37075 ft | 407 kts | 198° |
| 2026-05-04 15:04 | 32.18784 | -5.79709 | 37096 ft | 408 kts | 198° |
| 2026-05-04 15:04 | 32.13170 | -5.80697 | 37099 ft | 407 kts | 198° |
| 2026-05-04 15:05 | 32.07556 | -5.81674 | 37083 ft | 408 kts | 198° |
| 2026-05-04 15:05 | 32.01963 | -5.82701 | 37099 ft | 403 kts | 201° |
| 2026-05-04 15:06 | 31.96425 | -5.83794 | 37078 ft | 406 kts | 198° |
| 2026-05-04 15:07 | 31.87986 | -5.85217 | 37068 ft | 410 kts | 197° |
| 2026-05-04 15:07 | 31.82327 | -5.86143 | 37014 ft | 410 kts | 198° |
| 2026-05-04 15:08 | 31.76688 | -5.87090 | 36998 ft | 409 kts | 198° |
| 2026-05-04 15:08 | 31.71091 | -5.88007 | 37013 ft | 411 kts | 198° |
| 2026-05-04 15:09 | 31.65438 | -5.88934 | 36973 ft | 410 kts | 198° |
| 2026-05-04 15:09 | 31.59757 | -5.89814 | 36975 ft | 412 kts | 198° |
| 2026-05-04 15:10 | 31.51242 | -5.91231 | 36942 ft | 403 kts | 206° |
| 2026-05-04 15:10 | 31.46894 | -5.94523 | 36935 ft | 365 kts | 239° |
| 2026-05-04 15:11 | 31.45766 | -5.97118 | 36945 ft | 356 kts | 257° |
| 2026-05-04 15:11 | 31.45504 | -5.99981 | 36937 ft | 356 kts | 274° |
| 2026-05-04 15:11 | 31.46102 | -6.02815 | 36953 ft | 363 kts | 287° |
| 2026-05-04 15:12 | 31.48030 | -6.08330 | 36950 ft | 367 kts | 288° |
| 2026-05-04 15:12 | 31.49989 | -6.13855 | 36978 ft | 367 kts | 288° |
| 2026-05-04 15:13 | 31.51930 | -6.19338 | 36989 ft | 367 kts | 288° |
| 2026-05-04 15:13 | 31.52980 | -6.22029 | 36728 ft | 363 kts | 296° |
| 2026-05-04 15:13 | 31.54662 | -6.24242 | 36612 ft | 367 kts | 315° |
| 2026-05-04 15:13 | 31.56932 | -6.25578 | 36855 ft | 367 kts | 334° |
| 2026-05-04 15:14 | 31.59508 | -6.25917 | 37104 ft | 384 kts | 353° |
| 2026-05-04 15:14 | 31.62178 | -6.25266 | 36992 ft | 401 kts | 9° |
| 2026-05-04 15:14 | 31.64795 | -6.23980 | 36271 ft | 414 kts | 14° |
| 2026-05-04 15:14 | 31.67464 | -6.22602 | 35389 ft | 424 kts | 14° |
| 2026-05-04 15:15 | 31.70173 | -6.21246 | 34526 ft | 434 kts | 14° |
| 2026-05-04 15:15 | 31.72982 | -6.19868 | 33790 ft | 440 kts | 14° |
| 2026-05-04 15:15 | 31.75785 | -6.18514 | 33335 ft | 437 kts | 14° |
| 2026-05-04 15:16 | 31.81450 | -6.16346 | 32131 ft | 419 kts | 354° |
| 2026-05-04 15:16 | 31.84271 | -6.16756 | 31202 ft | 404 kts | 333° |
| 2026-05-04 15:16 | 31.88274 | -6.20891 | 29320 ft | 386 kts | 291° |
| 2026-05-04 15:17 | 31.89340 | -6.23782 | 28642 ft | 385 kts | 292° |
| 2026-05-04 15:17 | 31.90546 | -6.29627 | 27829 ft | 365 kts | 265° |
| 2026-05-04 15:17 | 31.90103 | -6.32539 | 27395 ft | 360 kts | 258° |
| 2026-05-04 15:18 | 31.89619 | -6.35412 | 26926 ft | 356 kts | 260° |
| 2026-05-04 15:18 | 31.89170 | -6.38259 | 26491 ft | 352 kts | 259° |
| 2026-05-04 15:18 | 31.88733 | -6.41081 | 26080 ft | 349 kts | 260° |
| 2026-05-04 15:19 | 31.87894 | -6.46649 | 25263 ft | 343 kts | 260° |
| 2026-05-04 15:19 | 31.87492 | -6.49364 | 24862 ft | 340 kts | 260° |
| 2026-05-04 15:19 | 31.86712 | -6.54809 | 24068 ft | 335 kts | 264° |
| 2026-05-04 15:20 | 31.86838 | -6.57538 | 23684 ft | 335 kts | 276° |
| 2026-05-04 15:20 | 31.87237 | -6.60235 | 23256 ft | 333 kts | 277° |
| 2026-05-04 15:20 | 31.87647 | -6.62905 | 22870 ft | 330 kts | 277° |
| 2026-05-04 15:20 | 31.88053 | -6.65546 | 22523 ft | 326 kts | 277° |
| 2026-05-04 15:21 | 31.88453 | -6.68152 | 22186 ft | 322 kts | 277° |
| 2026-05-04 15:21 | 31.88849 | -6.70724 | 21835 ft | 317 kts | 277° |
| 2026-05-04 15:21 | 31.89628 | -6.75738 | 21212 ft | 310 kts | 277° |
| 2026-05-04 15:22 | 31.90017 | -6.78221 | 20902 ft | 307 kts | 277° |
| 2026-05-04 15:22 | 31.90362 | -6.80685 | 20589 ft | 302 kts | 272° |
| 2026-05-04 15:22 | 31.90521 | -6.85556 | 19981 ft | 295 kts | 269° |
| 2026-05-04 15:23 | 31.90577 | -6.87960 | 19676 ft | 292 kts | 269° |
| 2026-05-04 15:23 | 31.90632 | -6.90343 | 19379 ft | 290 kts | 269° |
| 2026-05-04 15:23 | 31.90687 | -6.92705 | 19080 ft | 288 kts | 269° |
| 2026-05-04 15:23 | 31.90747 | -6.95050 | 18784 ft | 286 kts | 271° |
| 2026-05-04 15:24 | 31.92475 | -6.99121 | 18066 ft | 302 kts | 317° |
| 2026-05-04 15:24 | 31.96662 | -7.00536 | 16678 ft | 340 kts | 3° |
| 2026-05-04 15:25 | 31.98970 | -6.99723 | 15962 ft | 357 kts | 26° |
| 2026-05-04 15:25 | 32.00936 | -6.97915 | 15440 ft | 363 kts | 48° |
| 2026-05-04 15:25 | 32.02341 | -6.95443 | 14934 ft | 362 kts | 60° |
| 2026-05-04 15:26 | 32.04692 | -6.90358 | 14046 ft | 344 kts | 61° |
| 2026-05-04 15:26 | 32.05818 | -6.87913 | 13630 ft | 334 kts | 61° |
| 2026-05-04 15:26 | 32.07961 | -6.83262 | 12886 ft | 315 kts | 62° |
| 2026-05-04 15:27 | 32.09005 | -6.81040 | 12521 ft | 305 kts | 61° |
| 2026-05-04 15:27 | 32.10991 | -6.76800 | 11822 ft | 287 kts | 61° |
| 2026-05-04 15:28 | 32.11998 | -6.72464 | 10868 ft | 273 kts | 102° |
| 2026-05-04 15:28 | 32.11541 | -6.70322 | 10470 ft | 267 kts | 109° |
| 2026-05-04 15:28 | 32.10483 | -6.66234 | 9626 ft | 258 kts | 109° |
| 2026-05-04 15:29 | 32.09960 | -6.64227 | 9200 ft | 254 kts | 109° |
| 2026-05-04 15:30 | 32.10738 | -6.56958 | 7522 ft | 230 kts | 33° |
| 2026-05-04 15:30 | 32.14587 | -6.54154 | 6465 ft | 209 kts | 24° |
| 2026-05-04 15:31 | 32.17150 | -6.52637 | 5918 ft | 207 kts | 25° |
| 2026-05-04 15:31 | 32.18444 | -6.51884 | 5624 ft | 207 kts | 25° |
| 2026-05-04 15:32 | 32.22276 | -6.49614 | 5038 ft | 200 kts | 25° |
| 2026-05-04 15:32 | 32.24695 | -6.48149 | 4829 ft | 191 kts | 25° |
| 2026-05-04 15:33 | 32.27050 | -6.46702 | 4653 ft | 192 kts | 24° |
| 2026-05-04 15:34 | 32.30431 | -6.44179 | 4022 ft | 193 kts | 41° |
| 2026-05-04 15:34 | 32.31367 | -6.43088 | 3814 ft | 185 kts | 45° |
| 2026-05-04 15:34 | 32.32956 | -6.40956 | 3390 ft | 157 kts | 50° |
| 2026-05-04 15:35 | 32.34232 | -6.39062 | 3115 ft | 146 kts | 46° |
| 2026-05-04 15:35 | 32.34904 | -6.38157 | 2890 ft | 146 kts | 47° |
| 2026-05-04 15:35 | 32.35531 | -6.37236 | 2700 ft | 145 kts | 47° |
| 2026-05-04 15:36 | 32.36904 | -6.35509 | 2299 ft | 143 kts | 41° |
| 2026-05-04 15:36 | 32.37602 | -6.34686 | 2127 ft | 142 kts | 41° |
| 2026-05-04 15:36 | 32.38295 | -6.33854 | 1987 ft | 140 kts | 41° |
| 2026-05-04 15:37 | 32.38993 | -6.33032 | 1823 ft | 143 kts | 43° |
| 2026-05-04 15:37 | 32.39703 | -6.32183 | 1707 ft | 142 kts | 37° |
| 2026-05-04 15:37 | 32.40327 | -6.31441 | 1699 ft | 112 kts | 46° |
| 2026-05-04 15:37 | 32.40686 | -6.31008 | 1702 ft | 58 kts | 45° |
| 2026-05-04 15:38 | 32.40881 | -6.30778 | 1707 ft | 29 kts | 44° |
| 2026-05-04 15:38 | 32.40978 | -6.30703 | 1707 ft | 7 kts | 49° |
| 2026-05-04 15:38 | 32.40979 | -6.30691 | 1707 ft | 0 kts | 107° |
| 2026-05-04 15:38 | 32.40978 | -6.30690 | 1707 ft | 1 kts | 117° |
| 2026-05-04 15:39 | 32.40956 | -6.30685 | 1707 ft | 12 kts | 187° |
| 2026-05-04 15:39 | 32.40839 | -6.30817 | 1704 ft | 30 kts | 226° |
| 2026-05-04 15:39 | 32.40547 | -6.31164 | 1703 ft | 30 kts | 224° |
| 2026-05-04 15:40 | 32.40398 | -6.31341 | 1701 ft | 31 kts | 225° |
| 2026-05-04 15:40 | 32.40175 | -6.31607 | 1696 ft | 58 kts | 225° |
| 2026-05-04 15:40 | 32.39880 | -6.31959 | 1691 ft | 61 kts | 226° |
| 2026-05-04 15:40 | 32.39581 | -6.32315 | 1695 ft | 61 kts | 225° |
| 2026-05-04 15:41 | 32.39424 | -6.32528 | 1684 ft | 21 kts | 260° |
| 2026-05-04 15:41 | 32.39498 | -6.32652 | 1685 ft | 19 kts | 317° |
| 2026-05-04 15:41 | 32.39593 | -6.32697 | 1688 ft | 13 kts | 27° |
| 2026-05-04 15:41 | 32.39648 | -6.32709 | 1689 ft | 0 kts | 318° |